Relevés horaires Bierset (Belgique)


Relevés horaires à Bierset - Jeudi 19 Août 2021
Heure UTC1 Température [°C] Vent [km/h] Hum. [%] Pres.4 [hPa] Visi. [Km] Nébu. [octa] Préc.5 [mm] Cond.
2m. Res. Ros. Dir.2 Vit. Moy. Raf.3
23:00 15.1 15.1 12.5 OSO 7.4 9.3 14.8 84 1016.5(0.7/3h) 25 7/8 -- --
22:00 15.4 15.4 13.1 SO 7.4 7.4 13.0 86 1016.4(0.9/3h) 25 7/8 -- --
21:00 14.8 14.8 12.8 SSO 5.6 9.3 11.1 88 1015.9(0.6/3h) 30 6/8 -- --
20:00 15.6 15.6 13.2 SSO 7.4 7.4 11.1 86 1015.7(0.4/3h) 30 6/8 -- --
19:00 16.2 16.2 13.3 SSO 7.4 9.3 11.1 83 1015.4(0.0/3h) 30 6/8 -- --
18:00 17.1 17.1 13.7 SO 9.3 11.1 14.8 80 1015.1(-0.4/3h) 30 7/8 0/12h
--
17:00 17.4 17.4 13.7 SO 9.3 9.3 13.0 79 1015.2(-0.7/3h) 30 7/8 -- --
16:00 17.7 17.7 14.0 SO 5.6 9.3 11.1 79 1015.2(-0.7/3h) 30 7/8 -- --
15:00 17.7 17.7 13.7 SO 9.3 11.1 14.8 77 1015.4(-0.4/3h) 25 7/8 -- --
14:00 16.8 16.8 13.2 SO 9.3 11.1 14.8 79 1015.9(0.3/3h) 25 7/8 -- --
13:00 16.8 16.8 13.1 O 9.3 11.1 14.8 79 1016(-0.1/3h) 25 7/8 -- --
12:00 16.4 16.4 13.0 O 9.3 11.1 16.7 80 1015.9(0.2/3h) 25 7/8 0/6h
--
11:00 17.2 17.2 12.8 OSO 9.3 11.1 16.7 75 1015.7(0.2/3h) 25 7/8 -- --
10:00 16.6 16.4 12.6 OSO 11.1 11.1 14.8 77 1015.9(0.5/3h) 25 7/8 -- --
09:00 16.1 16 13.1 OSO 9.3 11.1 14.8 82 1015.8(0.6/3h) 25 7/8 -- --
08:00 15.8 15.6 13.5 OSO 9.3 11.1 13.0 86 1015.6(0.6/3h) 20 8/8 -- --
07:00 15.4 15.2 13.6 OSO 9.3 11.1 14.8 89 1015.6(0.6/3h) 20 8/8 -- --
06:00 15.3 15.1 13.6 OSO 9.3 11.1 16.7 90 1015.2(-0.1/3h) 20 8/8 0/12h
--
05:00 15.2 14.9 13.5 OSO 9.3 11.1 16.7 90 1015.1(-0.2/3h) 30 7/8 -- --
04:00 15.4 15 13.7 OSO 11.1 11.1 16.7 90 1015(-0.5/3h) 30 7/8 -- --
03:00 15.7 15.5 14.0 OSO 9.3 11.1 14.8 90 1015.1(-0.7/3h) 20 7/8 -- --
02:00 15.8 15.4 14.3 OSO 11.1 11.1 14.8 91 1015.2(-0.8/3h) 20 7/8 -- --
01:00 15.9 15.8 14.3 OSO 9.3 9.3 13.0 90 1015.4(-0.3/3h) 20 7/8 -- --
00:00 16.0 15.9 14.4 OSO 9.3 11.1 16.7 90 1015.8(0.0/3h) 17 7/8 0/6h
2.4/24h
Etat du ciel inchangé

1 Coordinated Universal Time. Actuellement il est 10:00 locale et 08:00 UTC.

2 Le vent souffle depuis la direction indiquée vers la direction oposée.

3 Les rafales max. sont disponible 40 min après l'heure du relevé.

4 Pour les stations d'altitude (plus de 600m) le géopotentiel du niveau le plus proche de la pression obligatoire est indiqué.

5 Les stations disposant d'un diffuseur peuvent indiquer "trace". Cela signifie que des précipitations ont touchés le sol mais que la quantité est inférieure à 0.1 mm.

Récapitulatif de la journée
Température [°C] Vent [km/h] Ensoleillement4 [h] Precipitations totale5 [mm] Pression [Hpa]
Min1 Max.2 Moy.3 Max. Min Max.
15.2 18.0 10.3 16.7 0 h 0 min 0 1015.0 1016.5

1 Température minimale relevée entre 18:00 UTC la veille et 18:00 UTC le jour donné.

2 Température maximale relevée entre 06:00 UTC le jour donné et 06:00 UTC le lendemain.

3 Vent moyen de la journée basé sur les relevés horaires.

4 Ensoleillement en heures relevé entre 06:00 UTC la veille et 06:00 UTC le jour donné.

5 Précipitations totales tombées entre 06:00 UTC la jour donné et 06:00 UTC le lendemain.

Graphiques horaires